Погода Гиа-Лопис-да-Лагунана 2 недели

Мату-Гросу-ду-Сул, Бразилия

17 - 30 июля
  • 17июля
    Сегодня
    +15°
    +27°
    Ясно и безоблачно
    ВремяПогодаТемператураВлажностьДавлениеВетер, м/сВероятность осадков
    02:00Ясно и безоблачно+14°C93 %745 мм1.6 м/с5 %
    05:00Ясно и безоблачно+14°C95 %745 мм1.7 м/с5 %
    08:00Ясно и безоблачно+17°C83 %746 мм1.0 м/с5 %
    11:00Ясно и безоблачно+24°C65 %746 мм0.2 м/с5 %
    14:00Ясно и безоблачно+27°C49 %744 мм0.4 м/с5 %
    17:00Ясно и безоблачно+26°C60 %743 мм0.7 м/с5 %
    20:00Ясно и безоблачно+20°C84 %743 мм2.4 м/с5 %
    23:00Ясно и безоблачно+17°C92 %743 мм1.7 м/с5 %
  • 18июля
    Четверг
    +18°
    +30°
    Ясно и безоблачно
    ВремяПогодаТемператураВлажностьДавлениеВетер, м/сВероятность осадков
    02:00Ясно и безоблачно+16°C93 %742 мм1.8 м/с5 %
    05:00Ясно и безоблачно+16°C85 %742 мм2.5 м/с5 %
    08:00Ясно и безоблачно+20°C73 %743 мм2.4 м/с5 %
    11:00Ясно и безоблачно+26°C52 %743 мм3.0 м/с5 %
    14:00Ясно и безоблачно+30°C37 %741 мм3.8 м/с5 %
    17:00Ясно и безоблачно+26°C64 %741 мм2.4 м/с5 %
    20:00Ясно и безоблачно+21°C68 %741 мм2.8 м/с5 %
    23:00Ясно и безоблачно+21°C58 %742 мм4.0 м/с5 %
  • 19июля
    Пятница
    +19°
    +31°
    Ясно и безоблачно
    ВремяПогодаТемператураВлажностьДавлениеВетер, м/сВероятность осадков
    02:00Ясно и безоблачно+20°C62 %741 мм3.0 м/с5 %
    05:00Ясно и безоблачно+19°C66 %742 мм2.6 м/с5 %
    08:00Ясно и безоблачно+21°C64 %744 мм1.5 м/с5 %
    11:00Ясно и безоблачно+27°C49 %745 мм1.7 м/с5 %
    14:00Ясно и безоблачно+30°C40 %743 мм1.8 м/с5 %
    17:00Ясно и безоблачно+28°C61 %743 мм1.3 м/с5 %
    20:00Ясно и безоблачно+23°C65 %744 мм3.0 м/с5 %
    23:00Ясно и безоблачно+21°C64 %744 мм3.1 м/с5 %
  • 20июля
    Суббота
    +16°
    +30°
    Ясно и безоблачно
    ВремяПогодаТемператураВлажностьДавлениеВетер, м/сВероятность осадков
    02:00Ясно и безоблачно+20°C64 %743 мм3.0 м/с5 %
    05:00Ясно и безоблачно+20°C64 %743 мм1.6 м/с5 %
    08:00Ясно и безоблачно+21°C65 %745 мм1.9 м/с5 %
    11:00Ясно и безоблачно+28°C50 %745 мм2.1 м/с5 %
    14:00Ясно и безоблачно+30°C34 %743 мм2.7 м/с5 %
    17:00Ясно и безоблачно+27°C57 %742 мм2.1 м/с5 %
    20:00Ясно и безоблачно+22°C58 %742 мм2.7 м/с5 %
    23:00Ясно и безоблачно+20°C62 %742 мм2.7 м/с5 %
  • 21июля
    Воскресенье
    +16°
    +31°
    Ясно и безоблачно
    ВремяПогодаТемператураВлажностьДавлениеВетер, м/сВероятность осадков
    02:00Ясно и безоблачно+18°C66 %741 мм2.7 м/с5 %
    05:00Ясно и безоблачно+16°C71 %741 мм2.9 м/с5 %
    08:00Ясно и безоблачно+21°C63 %743 мм1.9 м/с5 %
    11:00Ясно и безоблачно+27°C48 %742 мм1.6 м/с5 %
    14:00Ясно и безоблачно+31°C39 %740 мм2.0 м/с5 %
    17:00Ясно и безоблачно+30°C50 %739 мм1.5 м/с5 %
    20:00Ясно и безоблачно+23°C63 %740 мм3.7 м/с5 %
    23:00Ясно и безоблачно+21°C68 %741 мм2.9 м/с5 %
Мы используем cookies
Соглашаюсь